Time;durP1;ratioP1;P1;durP2;ratioP2;P2;SDS_P1;SDS_P2;PMS_P1;PMS_P2;Temp;Humidity;BMP_temperature;BMP_pressure;BME280_temperature;BME280_humidity;BME280_pressure;Samples;Min_cycle;Max_cycle;Signal;HPM_P1;HPM_P2
2020/12/25 00:02:23;;;;;;;5.92;5.00;;;;;;;-1.94;90.04;100534.52;1774912;80;21171;-34
2020/12/25 00:04:51;;;;;;;11.80;5.55;;;;;;;-1.93;89.93;100532.83;1774951;80;20967;-36
2020/12/25 00:07:19;;;;;;;11.22;4.70;;;;;;;-1.95;90.04;100524.30;1774993;80;21556;-36
2020/12/25 00:09:47;;;;;;;7.95;4.62;;;;;;;-1.94;90.07;100534.52;1774939;80;20933;-36
2020/12/25 00:12:15;;;;;;;6.55;4.62;;;;;;;-1.94;90.12;100516.75;1775083;80;22550;-35
2020/12/25 00:14:43;;;;;;;9.33;4.95;;;;;;;-1.94;90.19;100515.88;1775177;80;21025;-36
2020/12/25 00:17:11;;;;;;;6.33;4.97;;;;;;;-1.94;90.16;100515.88;1775062;80;21310;-37
2020/12/25 00:19:38;;;;;;;5.72;4.92;;;;;;;-1.92;90.17;100511.70;1775101;80;20959;-36
2020/12/25 00:22:06;;;;;;;8.60;5.30;;;;;;;-1.92;90.15;100507.52;1775154;80;20923;-35
2020/12/25 00:24:34;;;;;;;6.67;4.75;;;;;;;-1.94;90.28;100500.65;1775070;80;21145;-35
2020/12/25 00:27:02;;;;;;;6.15;4.92;;;;;;;-1.93;90.31;100497.30;1775074;80;20991;-35
2020/12/25 00:29:30;;;;;;;5.97;4.55;;;;;;;-1.92;90.37;100486.33;1775127;80;20983;-34
2020/12/25 00:31:58;;;;;;;6.40;4.92;;;;;;;-1.93;90.40;100480.41;1774927;80;21013;-36
2020/12/25 00:34:26;;;;;;;7.08;4.62;;;;;;;-1.89;90.39;100480.96;1775126;80;21466;-36
2020/12/25 00:36:54;;;;;;;5.42;4.67;;;;;;;-1.89;90.34;100478.85;1775084;80;21149;-34
2020/12/25 00:39:22;;;;;;;8.05;4.55;;;;;;;-1.89;90.42;100453.47;1775079;80;20983;-36
2020/12/25 00:41:51;;;;;;;6.05;4.67;;;;;;;-1.90;90.48;100475.43;1775170;80;20991;-37
2020/12/25 00:44:19;;;;;;;4.30;3.83;;;;;;;-1.90;90.51;100457.67;1775067;80;20924;-35
2020/12/25 00:46:47;;;;;;;4.58;4.03;;;;;;;-1.87;90.57;100454.37;1775131;80;20935;-36
2020/12/25 00:49:17;;;;;;;5.30;4.17;;;;;;;-1.86;90.53;100456.11;1775031;80;21257;-35
2020/12/25 00:51:47;;;;;;;4.83;3.98;;;;;;;-1.87;90.52;100449.30;1775132;80;21561;-35
2020/12/25 00:54:16;;;;;;;7.80;4.08;;;;;;;-1.85;90.57;100451.88;1777476;80;20971;-36
2020/12/25 00:56:48;;;;;;;4.78;4.20;;;;;;;-1.84;90.56;100446.86;1761852;80;20936;-36
2020/12/25 00:59:17;;;;;;;6.87;5.12;;;;;;;-1.83;90.56;100437.55;1781021;80;21580;-36
2020/12/25 01:01:45;;;;;;;6.28;4.45;;;;;;;-1.83;90.56;100431.21;1780933;80;21386;-35
2020/12/25 01:04:15;;;;;;;5.33;4.22;;;;;;;-1.81;90.60;100432.12;1780865;80;21024;-37
2020/12/25 01:06:42;;;;;;;7.35;4.90;;;;;;;-1.80;90.71;100415.69;1780810;80;21006;-36
2020/12/25 01:09:11;;;;;;;7.47;4.95;;;;;;;-1.79;90.71;100418.67;1780921;80;21058;-36
2020/12/25 01:11:41;;;;;;;8.05;5.92;;;;;;;-1.75;90.73;100424.30;1780840;80;20958;-36
2020/12/25 01:14:09;;;;;;;7.30;5.50;;;;;;;-1.74;90.69;100406.98;1780928;80;22062;-35
2020/12/25 01:16:37;;;;;;;6.85;5.28;;;;;;;-1.71;90.65;100419.31;1780710;80;21453;-36
2020/12/25 01:19:05;;;;;;;7.05;5.85;;;;;;;-1.70;90.72;100407.95;1780958;80;20943;-35
2020/12/25 01:21:33;;;;;;;8.30;6.00;;;;;;;-1.67;90.77;100407.16;1780847;80;21018;-35
2020/12/25 01:24:02;;;;;;;8.95;6.40;;;;;;;-1.63;90.74;100402.66;1780824;80;20932;-36
2020/12/25 01:26:30;;;;;;;10.32;5.83;;;;;;;-1.63;90.76;100400.97;1780857;80;22821;-35
2020/12/25 01:29:03;;;;;;;12.35;7.40;;;;;;;-1.61;90.67;100392.98;1780827;80;20979;-35
2020/12/25 01:31:31;;;;;;;11.45;7.10;;;;;;;-1.60;90.73;100401.48;1780797;80;21068;-35
2020/12/25 01:33:59;;;;;;;10.68;6.90;;;;;;;-1.60;90.73;100402.33;1780728;80;20935;-36
2020/12/25 01:36:27;;;;;;;14.38;6.95;;;;;;;-1.56;90.75;100388.45;1780886;80;20904;-36
2020/12/25 01:38:55;;;;;;;9.08;6.85;;;;;;;-1.56;90.80;100387.18;1780793;80;21261;-36
2020/12/25 01:41:22;;;;;;;10.53;6.78;;;;;;;-1.53;90.56;100389.41;1780830;80;21517;-36
2020/12/25 01:43:50;;;;;;;9.23;5.90;;;;;;;-1.52;90.65;100386.45;1780799;80;21010;-36
2020/12/25 01:46:18;;;;;;;9.93;6.17;;;;;;;-1.51;90.68;100386.52;1780856;80;20936;-35
2020/12/25 01:48:46;;;;;;;9.68;6.35;;;;;;;-1.52;90.77;100379.71;1780833;80;20900;-35
2020/12/25 01:51:14;;;;;;;11.22;6.55;;;;;;;-1.48;90.79;100371.36;1752993;80;21385;-35
2020/12/25 01:53:42;;;;;;;9.45;5.80;;;;;;;-1.45;90.87;100376.95;1780673;80;21027;-36
2020/12/25 01:56:10;;;;;;;9.85;6.42;;;;;;;-1.42;90.82;100373.63;1783397;80;20987;-36
2020/12/25 01:58:39;;;;;;;11.93;6.92;;;;;;;-1.39;90.82;100374.98;1783630;80;21015;-37
2020/12/25 02:01:07;;;;;;;11.05;6.67;;;;;;;-1.37;90.76;100376.76;1755712;80;21419;-38
2020/12/25 02:03:36;;;;;;;11.18;5.95;;;;;;;-1.36;90.82;100367.48;1783560;80;21384;-37
2020/12/25 02:06:04;;;;;;;9.05;5.37;;;;;;;-1.35;90.88;100367.92;1755308;80;21311;-37
2020/12/25 02:08:32;;;;;;;10.50;6.70;;;;;;;-1.33;90.92;100377.72;1783715;80;20942;-37
2020/12/25 02:11:00;;;;;;;11.22;6.22;;;;;;;-1.33;91.02;100365.02;1783504;80;21208;-37
2020/12/25 02:13:29;;;;;;;10.03;6.20;;;;;;;-1.31;91.03;100362.95;1755357;80;20991;-38
2020/12/25 02:15:58;;;;;;;9.45;6.12;;;;;;;-1.29;91.01;100363.02;1783486;80;21214;-37
2020/12/25 02:18:37;;;;;;;5.50;4.90;;;;;;;-1.25;91.02;100362.28;1783544;80;20892;-38
2020/12/25 02:21:05;;;;;;;9.40;5.90;;;;;;;-1.25;91.07;100367.36;1782719;80;20923;-38
2020/12/25 02:23:33;;;;;;;12.75;6.70;;;;;;;-1.24;91.14;100343.67;1783593;80;21009;-37
2020/12/25 02:26:01;;;;;;;9.15;5.60;;;;;;;-1.23;91.16;100352.17;1783627;80;20986;-36
2020/12/25 02:28:29;;;;;;;10.53;5.53;;;;;;;-1.20;91.20;100355.64;1783561;80;21266;-37
2020/12/25 02:30:57;;;;;;;8.80;4.80;;;;;;;-1.19;91.21;100351.02;1755277;80;21157;-37
2020/12/25 02:33:26;;;;;;;7.08;5.30;;;;;;;-1.18;91.21;100348.92;1783494;80;20916;-37
2020/12/25 02:35:56;;;;;;;7.08;5.17;;;;;;;-1.18;91.19;100338.76;1783496;80;21601;-36
2020/12/25 02:38:23;;;;;;;6.40;4.83;;;;;;;-1.17;91.20;100340.91;1783532;80;20962;-37
2020/12/25 02:40:51;;;;;;;6.58;4.90;;;;;;;-1.16;91.26;100332.04;1783560;80;21386;-36
2020/12/25 02:43:19;;;;;;;6.85;5.28;;;;;;;-1.14;91.30;100329.95;1783563;80;21014;-37
2020/12/25 02:45:47;;;;;;;8.08;5.25;;;;;;;-1.14;91.35;100341.38;1783504;80;21011;-38
2020/12/25 02:48:15;;;;;;;6.97;4.30;;;;;;;-1.11;91.31;100326.25;1783578;80;21490;-38
2020/12/25 02:50:43;;;;;;;5.53;4.33;;;;;;;-1.10;91.34;100320.34;1783641;80;21003;-38
2020/12/25 02:53:11;;;;;;;5.05;3.70;;;;;;;-1.10;91.38;100316.11;1783566;80;22423;-37
2020/12/25 02:55:39;;;;;;;6.15;3.90;;;;;;;-1.10;91.41;100308.48;1781633;80;21189;-37
2020/12/25 02:58:07;;;;;;;6.12;4.55;;;;;;;-1.10;91.46;100304.67;1780805;80;20943;-36
2020/12/25 03:00:35;;;;;;;6.58;4.70;;;;;;;-1.08;91.52;100317.44;1780742;80;20927;-36
2020/12/25 03:03:03;;;;;;;7.50;3.87;;;;;;;-1.05;91.54;100298.45;1780777;80;20967;-36
2020/12/25 03:05:32;;;;;;;6.40;4.20;;;;;;;-1.05;91.53;100295.91;1780592;80;21430;-38
2020/12/25 03:08:00;;;;;;;5.12;3.55;;;;;;;-1.06;91.58;100286.57;1780768;80;20979;-37
2020/12/25 03:10:30;;;;;;;4.12;3.62;;;;;;;-1.03;91.54;100290.46;1780706;80;21050;-36
2020/12/25 03:12:58;;;;;;;4.33;3.52;;;;;;;-1.04;91.52;100276.03;1780633;80;20991;-37
2020/12/25 03:15:26;;;;;;;5.55;4.15;;;;;;;-1.04;91.53;100272.22;1780838;80;20876;-37
2020/12/25 03:17:53;;;;;;;4.97;4.22;;;;;;;-1.05;91.59;100260.34;1780733;80;21257;-37
2020/12/25 03:20:21;;;;;;;5.25;3.50;;;;;;;-1.05;91.64;100261.61;1780608;80;21016;-38
2020/12/25 03:22:48;;;;;;;7.67;3.58;;;;;;;-1.04;91.67;100272.22;1780775;80;21302;-37
2020/12/25 03:25:17;;;;;;;4.33;3.35;;;;;;;-1.04;91.73;100236.65;1780775;80;21015;-37
2020/12/25 03:27:45;;;;;;;6.12;3.33;;;;;;;-1.03;91.72;100238.36;1780667;80;20998;-39
2020/12/25 03:30:12;;;;;;;5.05;3.47;;;;;;;-1.04;91.78;100232.84;1780869;80;21297;-37
2020/12/25 03:32:40;;;;;;;4.00;3.33;;;;;;;-1.04;91.78;100228.59;1780644;80;20955;-36
2020/12/25 03:35:09;;;;;;;3.40;3.10;;;;;;;-1.04;91.78;100215.05;1780764;80;21046;-38
2020/12/25 03:37:38;;;;;;;3.42;3.12;;;;;;;-1.04;91.81;100226.05;1780731;80;21311;-37
2020/12/25 03:40:06;;;;;;;3.70;3.33;;;;;;;-1.04;91.80;100221.40;1780884;80;20994;-36
2020/12/25 03:42:34;;;;;;;3.80;3.10;;;;;;;-1.03;91.86;100212.95;1780769;80;21327;-36
2020/12/25 03:45:02;;;;;;;3.83;2.70;;;;;;;-1.01;91.87;100211.31;1780718;80;20940;-36
2020/12/25 03:47:30;;;;;;;4.87;2.50;;;;;;;-1.00;91.85;100215.57;1780792;80;21572;-37
2020/12/25 03:49:57;;;;;;;4.40;3.10;;;;;;;-1.00;91.84;100213.45;1780719;80;20999;-38
2020/12/25 03:52:25;;;;;;;2.90;2.70;;;;;;;-1.03;91.87;100215.07;1780773;80;20927;-36
2020/12/25 03:54:53;;;;;;;2.87;2.50;;;;;;;-0.99;91.91;100199.92;1779693;80;22443;-36
2020/12/25 03:57:21;;;;;;;3.17;2.22;;;;;;;-0.99;91.93;100198.66;1774912;80;21225;-36
2020/12/25 03:59:49;;;;;;;3.17;2.50;;;;;;;-0.98;91.90;100196.13;1774990;80;20936;-36
2020/12/25 04:02:16;;;;;;;3.50;2.47;;;;;;;-0.98;91.92;100187.24;1774941;80;20936;-38
2020/12/25 04:04:44;;;;;;;3.05;2.75;;;;;;;-0.97;91.92;100180.06;1774903;80;20947;-37
2020/12/25 04:07:12;;;;;;;2.75;2.55;;;;;;;-0.96;91.90;100179.23;1775018;80;21201;-37
2020/12/25 04:10:39;;;;;;;3.42;2.02;;;;;;;-0.94;91.95;100171.67;1816170;79;22540;-35
2020/12/25 04:13:07;;;;;;;5.67;2.55;;;;;;;-0.98;91.96;100168.61;1789269;80;20879;-37
2020/12/25 04:15:35;;;;;;;2.92;2.05;;;;;;;-0.96;91.94;100172.05;1789395;80;21192;-36
2020/12/25 04:18:02;;;;;;;4.92;2.33;;;;;;;-0.96;91.92;100163.15;1789347;80;21018;-35
2020/12/25 04:20:30;;;;;;;2.58;1.92;;;;;;;-0.96;91.95;100160.18;1789284;80;20923;-37
2020/12/25 04:22:58;;;;;;;4.37;2.22;;;;;;;-0.96;91.97;100163.99;1789170;80;20971;-35
2020/12/25 04:25:25;;;;;;;2.05;1.85;;;;;;;-0.96;91.97;100166.53;1789292;80;21025;-36
2020/12/25 04:27:53;;;;;;;2.02;1.92;;;;;;;-0.93;91.96;100158.98;1789252;80;21145;-35
2020/12/25 04:30:21;;;;;;;2.45;2.12;;;;;;;-0.93;91.95;100164.06;1789197;80;20994;-35
2020/12/25 04:32:49;;;;;;;2.87;2.42;;;;;;;-0.92;91.97;100149.69;1789309;80;20971;-35
2020/12/25 04:35:16;;;;;;;2.22;2.12;;;;;;;-0.92;92.00;100163.23;1789283;80;20939;-35
2020/12/25 04:37:44;;;;;;;2.50;1.95;;;;;;;-0.91;92.00;100152.25;1789243;80;20982;-36
2020/12/25 04:40:13;;;;;;;4.17;2.20;;;;;;;-0.91;91.99;100158.60;1789200;80;22356;-36
2020/12/25 04:42:41;;;;;;;3.77;2.50;;;;;;;-0.92;92.04;100164.51;1789151;80;21062;-35
2020/12/25 04:45:09;;;;;;;2.72;2.20;;;;;;;-0.91;92.06;100163.69;1789284;80;20923;-35
2020/12/25 04:47:37;;;;;;;3.77;2.10;;;;;;;-0.89;92.01;100158.22;1789202;80;20926;-35
2020/12/25 04:50:05;;;;;;;2.22;2.02;;;;;;;-0.87;91.98;100162.08;1758951;80;20967;-35
2020/12/25 04:52:33;;;;;;;2.20;2.10;;;;;;;-0.86;92.02;100161.27;1789274;80;22070;-36
2020/12/25 04:55:01;;;;;;;2.42;2.22;;;;;;;-0.87;92.00;100178.21;1759045;80;21078;-34
2020/12/25 04:57:29;;;;;;;2.33;2.12;;;;;;;-0.85;91.97;100174.42;1789287;80;20939;-35
2020/12/25 04:59:57;;;;;;;3.02;2.37;;;;;;;-0.84;91.98;100165.97;1789169;80;21010;-35
2020/12/25 05:02:25;;;;;;;4.50;1.90;;;;;;;-0.83;91.97;100183.36;1789271;80;20923;-35
2020/12/25 05:04:53;;;;;;;2.12;1.90;;;;;;;-0.82;91.97;100171.09;1789209;80;21432;-34
2020/12/25 05:07:21;;;;;;;2.98;1.87;;;;;;;-0.80;91.94;100175.80;1789114;80;21042;-35
2020/12/25 05:09:49;;;;;;;1.55;1.45;;;;;;;-0.81;91.88;100173.66;1782004;80;20920;-36
2020/12/25 05:12:17;;;;;;;2.20;1.87;;;;;;;-0.81;91.84;100174.93;1775698;80;20912;-35
2020/12/25 05:14:44;;;;;;;2.50;1.87;;;;;;;-0.82;91.83;100164.31;1775618;80;21000;-35
2020/12/25 05:17:12;;;;;;;2.02;1.80;;;;;;;-0.80;91.79;100174.53;1775713;80;21200;-35
2020/12/25 05:19:41;;;;;;;1.90;1.80;;;;;;;-0.79;91.81;100164.81;1775634;80;20932;-35
2020/12/25 05:22:09;;;;;;;1.75;1.65;;;;;;;-0.78;91.79;100156.36;1775157;80;20987;-37
2020/12/25 05:24:39;;;;;;;2.00;1.80;;;;;;;-0.79;91.80;100177.52;1775073;80;21008;-36
2020/12/25 05:27:14;;;;;;;1.62;1.52;;;;;;;-0.79;91.76;100174.98;1775234;80;20945;-35
2020/12/25 05:29:42;;;;;;;2.10;1.60;;;;;;;-0.79;91.77;100175.83;1753254;80;21353;-35
2020/12/25 05:32:10;;;;;;;6.47;1.40;;;;;;;-0.75;91.77;100172.95;1775068;80;21019;-36
2020/12/25 05:34:38;;;;;;;2.20;1.80;;;;;;;-0.77;91.76;100155.11;1753271;80;20912;-36
2020/12/25 05:37:07;;;;;;;2.33;1.80;;;;;;;-0.75;91.75;100171.69;1775059;80;20884;-36
2020/12/25 05:39:37;;;;;;;1.42;1.37;;;;;;;-0.74;91.71;100179.75;1775140;80;21015;-36
2020/12/25 05:42:07;;;;;;;1.82;1.40;;;;;;;-0.73;91.76;100184.02;1775100;80;21381;-36
2020/12/25 05:44:47;;;;;;;1.70;1.60;;;;;;;-0.73;91.79;100187.83;1752998;80;20963;-37
2020/12/25 05:47:18;;;;;;;3.25;1.55;;;;;;;-0.73;91.80;100189.09;1775110;80;20988;-36
2020/12/25 05:49:46;;;;;;;1.50;1.35;;;;;;;-0.72;91.79;100184.45;1775074;80;20943;-36
2020/12/25 05:52:14;;;;;;;1.15;1.15;;;;;;;-0.71;91.77;100186.17;1775082;80;20979;-36
2020/12/25 05:54:42;;;;;;;1.50;1.40;;;;;;;-0.70;91.77;100176.45;1775099;80;21274;-36
2020/12/25 05:57:12;;;;;;;1.65;1.35;;;;;;;-0.71;91.79;100191.69;1729672;80;21506;-35
2020/12/25 05:59:40;;;;;;;1.20;1.10;;;;;;;-0.71;91.80;100196.34;1753326;80;21382;-35
2020/12/25 06:02:08;;;;;;;1.40;1.30;;;;;;;-0.69;91.79;100187.07;1753262;80;20943;-36
2020/12/25 06:04:37;;;;;;;1.67;1.30;;;;;;;-0.67;91.77;100188.39;1775006;80;20900;-38
2020/12/25 06:07:05;;;;;;;1.80;1.67;;;;;;;-0.67;91.78;100198.13;1775113;80;21352;-35
2020/12/25 06:09:33;;;;;;;2.30;1.20;;;;;;;-0.68;91.81;100195.14;1700183;80;21042;-36
2020/12/25 06:12:01;;;;;;;1.05;1.05;;;;;;;-0.67;91.78;100194.32;1785426;80;21030;-36
2020/12/25 06:14:29;;;;;;;2.00;1.35;;;;;;;-0.65;91.78;100192.67;1785557;80;21284;-35
2020/12/25 06:17:07;;;;;;;1.52;1.42;;;;;;;-0.65;91.78;100190.55;1785569;80;20979;-35
2020/12/25 06:19:59;;;;;;;0.80;0.80;;;;;;;-0.67;91.81;100191.78;1785613;80;22243;-38
2020/12/25 06:22:30;;;;;;;1.12;1.10;;;;;;;-0.65;91.86;100190.55;1785496;80;20974;-35
2020/12/25 06:25:05;;;;;;;0.72;0.72;;;;;;;-0.64;91.91;100175.31;1755644;80;21557;-38
2020/12/25 06:27:33;;;;;;;1.63;1.10;;;;;;;-0.61;91.94;100172.87;1785734;80;21007;-37
2020/12/25 06:30:02;;;;;;;1.65;1.20;;;;;;;-0.61;91.96;100179.63;1785490;80;20986;-35
2020/12/25 06:32:30;;;;;;;1.32;1.22;;;;;;;-0.60;91.95;100180.95;1785486;80;21375;-38
2020/12/25 06:35:00;;;;;;;1.55;1.15;;;;;;;-0.59;91.87;100187.75;1785403;80;21469;-38
2020/12/25 06:37:29;;;;;;;1.62;1.52;;;;;;;-0.57;91.86;100172.94;1731418;80;20943;-36
2020/12/25 06:40:07;;;;;;;0.95;0.95;;;;;;;-0.59;91.88;100185.20;1785483;80;20991;-37
2020/12/25 06:42:36;;;;;;;1.12;1.12;;;;;;;-0.58;91.88;100175.87;1785589;80;21486;-39
2020/12/25 06:45:07;;;;;;;7.05;6.00;;;;;;;-0.54;91.86;100183.17;1785497;80;21377;-37
2020/12/25 06:47:39;;;;;;;1.77;1.67;;;;;;;-0.54;91.85;100177.66;1785196;80;21155;-39
2020/12/25 06:50:10;;;;;;;1.07;1.07;;;;;;;-0.52;91.86;100171.34;1785543;80;21062;-37
2020/12/25 06:52:56;;;;;;;0.78;0.55;;;;;;;-0.50;91.83;100165.48;1785480;80;20924;-36
2020/12/25 06:55:24;;;;;;;0.95;0.78;;;;;;;-0.45;91.82;100169.37;1785524;80;20983;-34
2020/12/25 06:57:56;;;;;;;0.90;0.90;;;;;;;-0.43;91.73;100166.45;1785573;80;21194;-36
2020/12/25 07:00:24;;;;;;;0.80;0.80;;;;;;;-0.44;91.71;100160.52;1785397;80;20986;-36
2020/12/25 07:02:52;;;;;;;0.70;0.70;;;;;;;-0.43;91.67;100165.19;1785470;80;21110;-36
2020/12/25 07:05:23;;;;;;;0.70;0.70;;;;;;;-0.41;91.64;100158.87;1785567;80;20876;-36
2020/12/25 07:07:52;;;;;;;1.00;1.00;;;;;;;-0.40;91.62;100163.13;1782332;80;20944;-37
2020/12/25 07:10:20;;;;;;;0.70;0.70;;;;;;;-0.40;91.68;100163.97;1755389;80;21200;-36
2020/12/25 07:12:47;;;;;;;0.93;0.90;;;;;;;-0.40;91.70;100174.15;1785406;80;20943;-37
2020/12/25 07:15:15;;;;;;;0.65;0.62;;;;;;;-0.39;91.66;100166.13;1730527;80;20955;-36
2020/12/25 07:17:43;;;;;;;0.78;0.78;;;;;;;-0.39;91.67;100163.58;1785369;80;21018;-36
2020/12/25 07:20:10;;;;;;;0.82;0.82;;;;;;;-0.38;91.71;100166.17;1785585;80;22193;-37
2020/12/25 07:22:38;;;;;;;0.80;0.80;;;;;;;-0.37;91.73;100176.78;1785481;80;21145;-36
2020/12/25 07:25:09;;;;;;;0.50;0.50;;;;;;;-0.35;91.73;100185.31;1755456;80;20955;-37
2020/12/25 07:27:37;;;;;;;1.90;0.78;;;;;;;-0.34;91.74;100180.66;1785508;80;20923;-37
2020/12/25 07:30:05;;;;;;;2.45;0.82;;;;;;;-0.33;91.77;100184.92;1785421;80;21010;-36
2020/12/25 07:32:32;;;;;;;0.90;0.90;;;;;;;-0.32;91.81;100183.23;1785501;80;20978;-37
2020/12/25 07:35:05;;;;;;;0.72;0.72;;;;;;;-0.31;91.78;100182.00;1755529;80;21214;-37
2020/12/25 07:37:33;;;;;;;1.00;0.68;;;;;;;-0.30;91.77;100176.09;1785465;80;21050;-36
2020/12/25 07:40:06;;;;;;;1.02;0.80;;;;;;;-0.27;91.85;100178.25;1785503;80;21007;-36
2020/12/25 07:42:34;;;;;;;2.72;0.70;;;;;;;-0.28;91.92;100175.26;1785477;80;20932;-35
2020/12/25 07:45:02;;;;;;;1.50;0.70;;;;;;;-0.28;91.96;100178.64;1785408;80;21007;-35
2020/12/25 07:47:30;;;;;;;1.20;0.93;;;;;;;-0.26;91.91;100181.23;1785501;80;21339;-36
2020/12/25 07:50:00;;;;;;;1.00;1.00;;;;;;;-0.26;91.96;100186.33;1785410;80;20986;-36
2020/12/25 07:52:28;;;;;;;1.00;0.90;;;;;;;-0.24;92.09;100185.55;1785573;80;20892;-38
2020/12/25 07:54:58;;;;;;;2.95;1.20;;;;;;;-0.23;92.07;100187.27;1782334;80;21157;-37
2020/12/25 07:57:27;;;;;;;1.15;0.88;;;;;;;-0.21;92.10;100184.33;1754978;80;20991;-36
2020/12/25 07:59:55;;;;;;;5.50;1.50;;;;;;;-0.20;92.22;100186.05;1785524;80;21360;-37
2020/12/25 08:02:23;;;;;;;1.47;1.15;;;;;;;-0.20;92.30;100180.96;1785393;80;20983;-37
2020/12/25 08:04:50;;;;;;;1.30;1.15;;;;;;;-0.17;92.29;100176.33;1785471;80;20924;-35
2020/12/25 08:07:18;;;;;;;1.07;1.07;;;;;;;-0.14;92.38;100178.94;1785354;80;20911;-37
2020/12/25 08:09:47;;;;;;;1.40;1.30;;;;;;;-0.12;92.46;100182.40;1785205;80;21010;-38
2020/12/25 08:12:16;;;;;;;2.45;1.02;;;;;;;-0.12;92.49;100170.95;1728595;80;21144;-37
2020/12/25 08:14:44;;;;;;;2.72;1.85;;;;;;;-0.13;92.45;100162.84;1753094;80;20991;-35
2020/12/25 08:17:12;;;;;;;1.47;1.37;;;;;;;-0.12;92.50;100157.35;1753378;80;21015;-36
2020/12/25 08:19:40;;;;;;;3.80;1.32;;;;;;;-0.11;92.50;100156.52;1752978;80;21026;-36
2020/12/25 08:22:09;;;;;;;3.30;1.22;;;;;;;-0.09;92.55;100149.37;1774994;80;20920;-36
2020/12/25 08:24:36;;;;;;;1.72;1.45;;;;;;;-0.07;92.63;100155.75;1774876;80;21371;-36
2020/12/25 08:27:04;;;;;;;2.20;1.62;;;;;;;-0.06;92.67;100159.62;1774888;80;21015;-37
2020/12/25 08:29:32;;;;;;;2.45;1.27;;;;;;;-0.04;92.67;100156.69;1775000;80;21423;-37
2020/12/25 08:32:08;;;;;;;1.85;1.75;;;;;;;-0.04;92.64;100147.78;1774973;80;20972;-36
2020/12/25 08:34:36;;;;;;;1.67;1.57;;;;;;;-0.03;92.65;100139.71;1774881;80;20920;-36
2020/12/25 08:37:07;;;;;;;2.70;2.05;;;;;;;-0.03;92.72;100141.86;1775016;80;21280;-37
2020/12/25 08:39:34;;;;;;;1.67;1.57;;;;;;;-0.02;92.80;100144.84;1774881;80;20999;-38
2020/12/25 08:42:02;;;;;;;2.72;2.17;;;;;;;-0.01;92.77;100138.92;1774987;80;21022;-36
2020/12/25 08:44:30;;;;;;;2.30;2.05;;;;;;;0.02;92.81;100141.08;1775079;80;20953;-36
2020/12/25 08:47:10;;;;;;;2.72;1.98;;;;;;;0.04;92.86;100141.97;1774916;80;21003;-36
2020/12/25 08:49:37;;;;;;;2.70;2.20;;;;;;;0.04;92.98;100139.42;1774991;80;21423;-37
2020/12/25 08:52:23;;;;;;;2.27;2.00;;;;;;;0.05;93.04;100129.28;1774845;80;20995;-36
2020/12/25 08:54:58;;;;;;;4.03;2.25;;;;;;;0.07;93.07;100119.98;1775008;80;20888;-38
2020/12/25 08:57:26;;;;;;;3.58;2.98;;;;;;;0.10;93.06;100121.72;1774592;80;22066;-36
2020/12/25 09:00:07;;;;;;;3.40;2.60;;;;;;;0.09;93.10;100124.70;1775104;80;20964;-37
2020/12/25 09:02:34;;;;;;;6.17;3.05;;;;;;;0.10;93.17;100120.45;1775100;80;21287;-37
2020/12/25 09:05:02;;;;;;;5.12;2.52;;;;;;;0.13;93.22;100110.34;1775061;80;21003;-37
2020/12/25 09:07:30;;;;;;;4.08;3.12;;;;;;;0.13;93.19;100111.19;1775155;80;20940;-36
2020/12/25 09:09:58;;;;;;;21.00;3.47;;;;;;;0.16;93.20;100104.44;1774898;80;21027;-36
2020/12/25 09:12:26;;;;;;;10.38;4.00;;;;;;;0.16;93.23;100096.80;1780551;80;20994;-37
2020/12/25 09:14:54;;;;;;;16.30;3.50;;;;;;;0.16;93.28;100104.04;1780847;80;21257;-37
2020/12/25 09:17:22;;;;;;;11.75;3.80;;;;;;;0.18;93.32;100097.69;1780902;80;21053;-38
2020/12/25 09:19:50;;;;;;;3.67;2.83;;;;;;;0.20;93.33;100093.47;1780864;80;20923;-37
2020/12/25 09:22:18;;;;;;;23.05;3.58;;;;;;;0.22;93.37;100082.50;1780971;80;20935;-36
2020/12/25 09:24:47;;;;;;;8.08;3.25;;;;;;;0.26;93.40;100094.45;1780920;80;20979;-36
2020/12/25 09:27:15;;;;;;;11.70;3.62;;;;;;;0.28;93.38;100089.40;1780860;80;22349;-36
2020/12/25 09:29:42;;;;;;;8.38;4.17;;;;;;;0.30;93.49;100097.05;1780761;80;21054;-35
2020/12/25 09:32:14;;;;;;;12.33;3.02;;;;;;;0.35;93.54;100087.80;1780878;80;20927;-38
2020/12/25 09:34:42;;;;;;;9.03;2.55;;;;;;;0.40;93.58;100089.59;1780797;80;21035;-36
2020/12/25 09:37:10;;;;;;;7.08;3.20;;;;;;;0.42;93.57;100087.93;1780839;80;20908;-36
2020/12/25 09:39:39;;;;;;;11.68;3.42;;;;;;;0.44;93.56;100073.97;1779355;80;21376;-36
2020/12/25 09:42:07;;;;;;;6.70;3.02;;;;;;;0.47;93.55;100075.28;1780843;80;20932;-37
2020/12/25 09:44:36;;;;;;;8.28;3.08;;;;;;;0.51;93.46;100070.68;1780835;80;21003;-36
2020/12/25 09:47:05;;;;;;;17.35;3.22;;;;;;;0.55;93.43;100072.88;1780932;80;21015;-36
2020/12/25 09:49:33;;;;;;;12.28;3.22;;;;;;;0.59;93.45;100068.27;1780802;80;20939;-36
2020/12/25 09:52:04;;;;;;;17.50;3.00;;;;;;;0.61;93.44;100068.27;1780945;80;22421;-37
2020/12/25 09:54:32;;;;;;;15.63;3.33;;;;;;;0.66;93.40;100073.05;1780759;80;21038;-37
2020/12/25 09:57:02;;;;;;;7.60;3.22;;;;;;;0.70;93.35;100068.44;1780858;80;20971;-36
2020/12/25 09:59:30;;;;;;;16.75;2.92;;;;;;;0.72;93.29;100071.87;1780802;80;20916;-37
2020/12/25 10:01:58;;;;;;;15.23;3.55;;;;;;;0.73;93.25;100063.39;1780864;80;20987;-37
2020/12/25 10:04:26;;;;;;;8.10;3.12;;;;;;;0.75;93.19;100067.22;1780866;80;22255;-37
2020/12/25 10:06:57;;;;;;;2.95;2.75;;;;;;;0.77;93.16;100065.58;1780758;80;21039;-38
2020/12/25 10:09:25;;;;;;;2.52;2.33;;;;;;;0.75;93.15;100073.19;1780775;80;20991;-35
2020/12/25 10:11:54;;;;;;;4.22;2.67;;;;;;;0.78;93.13;100069.84;1777472;80;20991;-36
2020/12/25 10:14:22;;;;;;;3.60;2.30;;;;;;;0.79;93.08;100068.56;1775150;80;21064;-34
2020/12/25 10:16:49;;;;;;;2.80;2.60;;;;;;;0.79;93.05;100070.28;1775034;80;21193;-35
2020/12/25 10:19:17;;;;;;;15.28;3.50;;;;;;;0.79;93.07;100066.02;1775027;80;21002;-36
2020/12/25 10:21:45;;;;;;;16.97;3.08;;;;;;;0.79;93.13;100078.77;1774919;80;20983;-35
2020/12/25 10:24:13;;;;;;;19.90;3.45;;;;;;;0.81;93.12;100078.37;1775113;80;20983;-35
2020/12/25 10:26:41;;;;;;;11.35;3.05;;;;;;;0.82;93.07;100081.36;1775047;80;21007;-35
2020/12/25 10:29:09;;;;;;;5.80;2.85;;;;;;;0.82;93.06;100082.62;1775041;80;21367;-35
2020/12/25 10:31:37;;;;;;;28.57;4.17;;;;;;;0.82;93.09;100086.45;1774800;80;20983;-36
2020/12/25 10:34:05;;;;;;;22.02;4.03;;;;;;;0.84;93.11;100086.05;1775134;80;21003;-35
2020/12/25 10:36:33;;;;;;;8.98;3.52;;;;;;;0.86;93.11;100083.11;1775071;80;20991;-36
2020/12/25 10:39:01;;;;;;;16.25;4.08;;;;;;;0.90;93.12;100083.19;1775000;80;21303;-37
2020/12/25 10:41:30;;;;;;;7.15;3.05;;;;;;;0.91;93.10;100084.90;1775027;80;21374;-36
2020/12/25 10:43:58;;;;;;;9.10;3.02;;;;;;;0.92;93.09;100087.89;1774956;80;20948;-37
2020/12/25 10:46:26;;;;;;;14.25;3.67;;;;;;;0.96;93.05;100085.82;1775063;80;21517;-36
2020/12/25 10:48:54;;;;;;;10.05;3.83;;;;;;;0.96;92.99;100084.55;1774917;80;20944;-35
2020/12/25 10:51:22;;;;;;;29.98;5.85;;;;;;;0.97;93.02;100084.98;1775006;80;21015;-35
2020/12/25 10:53:50;;;;;;;31.23;4.70;;;;;;;0.97;93.00;100087.53;1775124;80;22711;-36
2020/12/25 10:56:23;;;;;;;19.15;4.42;;;;;;;0.99;92.95;100090.53;1774887;80;21200;-35
2020/12/25 10:58:51;;;;;;;19.27;4.55;;;;;;;0.99;92.95;100087.14;1775043;80;20936;-36
2020/12/25 11:01:29;;;;;;;20.80;4.70;;;;;;;0.99;92.98;100085.42;1775057;80;20923;-36
2020/12/25 11:03:58;;;;;;;22.32;5.60;;;;;;;1.00;92.99;100082.48;1774919;80;21131;-37
2020/12/25 11:06:37;;;;;;;24.40;5.10;;;;;;;1.04;93.01;100085.94;1767342;80;21382;-35
2020/12/25 11:09:06;;;;;;;24.30;5.30;;;;;;;1.07;93.00;100086.83;1774898;80;21007;-36
2020/12/25 11:11:53;;;;;;;8.20;4.67;;;;;;;1.11;93.01;100092.40;1774833;80;20948;-35
2020/12/25 11:14:39;;;;;;;5.42;4.47;;;;;;;1.16;93.06;100089.09;1775065;80;20943;-36
2020/12/25 11:17:07;;;;;;;9.00;4.05;;;;;;;1.22;93.07;100089.16;1775018;80;21040;-35
2020/12/25 11:19:35;;;;;;;7.75;4.05;;;;;;;1.26;93.04;100085.41;1775017;80;21248;-36
2020/12/25 11:22:03;;;;;;;7.42;4.65;;;;;;;1.27;93.02;100077.33;1775048;80;21126;-36
2020/12/25 11:24:31;;;;;;;5.80;4.83;;;;;;;1.30;92.99;100081.19;1775048;80;20916;-37
2020/12/25 11:26:59;;;;;;;6.12;4.75;;;;;;;1.32;92.95;100076.97;1774993;80;20999;-37
2020/12/25 11:29:27;;;;;;;5.90;4.58;;;;;;;1.34;92.88;100071.90;1774983;80;20920;-35
2020/12/25 11:31:55;;;;;;;11.63;4.78;;;;;;;1.35;92.90;100072.34;1774924;80;21263;-37
2020/12/25 11:34:24;;;;;;;16.10;4.87;;;;;;;1.37;92.90;100075.77;1774913;80;21062;-35
2020/12/25 11:36:52;;;;;;;25.17;5.30;;;;;;;1.40;92.93;100075.39;1775042;80;21014;-35